createdAt,value
2018-09-03T00:00:01.880Z,101739.02
2018-09-03T00:01:07.560Z,101744.25
2018-09-03T00:02:13.072Z,101743.84
2018-09-03T00:03:18.488Z,101744.20
2018-09-03T00:04:24.058Z,101738.50
2018-09-03T00:05:29.488Z,101739.66
2018-09-03T00:06:35.409Z,101737.41
2018-09-03T00:07:40.810Z,101733.17
2018-09-03T00:08:46.212Z,101735.28
2018-09-03T00:09:51.789Z,101732.17
2018-09-03T00:10:58.192Z,101735.66
2018-09-03T00:12:03.633Z,101733.69
2018-09-03T00:13:09.047Z,101733.17
2018-09-03T00:14:14.512Z,101734.66
2018-09-03T00:15:19.973Z,101729.06
2018-09-03T00:16:25.605Z,101730.34
2018-09-03T00:17:31.144Z,101728.23
2018-09-03T00:18:36.583Z,101722.58
2018-09-03T00:19:42.013Z,101722.31
2018-09-03T00:20:47.458Z,101726.53
2018-09-03T00:21:52.988Z,101713.29
2018-09-03T00:22:58.469Z,101715.26
2018-09-03T00:24:03.962Z,101711.31
2018-09-03T00:25:10.297Z,101712.45
2018-09-03T00:26:15.760Z,101711.61
2018-09-03T00:27:21.280Z,101713.80
2018-09-03T00:28:26.803Z,101713.09
2018-09-03T00:29:32.312Z,101710.96
2018-09-03T00:30:37.774Z,101708.66
2018-09-03T00:31:48.385Z,101706.84
2018-09-03T00:32:58.981Z,101700.64
2018-09-03T00:34:09.520Z,101704.07
2018-09-03T00:35:20.218Z,101702.97
2018-09-03T00:36:31.037Z,101699.14
2018-09-03T00:37:41.705Z,101700.48
2018-09-03T00:38:52.259Z,101696.54
2018-09-03T00:40:02.892Z,101699.91
2018-09-03T00:41:13.496Z,101700.28
2018-09-03T00:42:24.025Z,101698.66
2018-09-03T00:43:35.467Z,101697.01
2018-09-03T00:44:46.029Z,101699.91
2018-09-03T00:45:56.794Z,101686.62
2018-09-03T00:47:05.808Z,101693.83
2018-09-03T00:48:11.393Z,101686.89
2018-09-03T00:49:16.847Z,101691.23
2018-09-03T00:50:22.436Z,101690.42
2018-09-03T00:51:28.029Z,101688.86
2018-09-03T00:52:33.441Z,101688.48
2018-09-03T00:53:38.866Z,101683.73
2018-09-03T00:54:44.882Z,101684.70
2018-09-03T00:55:50.414Z,101684.76
2018-09-03T00:56:55.892Z,101685.22
2018-09-03T00:58:01.597Z,101675.01
2018-09-03T00:59:07.023Z,101677.55
2018-09-03T01:00:12.496Z,101676.55
2018-09-03T01:01:17.966Z,101672.05
2018-09-03T01:02:23.817Z,101673.44
2018-09-03T01:03:29.269Z,101670.58
2018-09-03T01:04:34.801Z,101673.28
2018-09-03T01:05:40.318Z,101668.09
2018-09-03T01:06:45.845Z,101671.14
2018-09-03T01:07:51.345Z,101666.69
2018-09-03T01:08:56.820Z,101665.80
2018-09-03T01:10:02.247Z,101660.77
2018-09-03T01:11:08.906Z,101656.89
2018-09-03T01:12:14.370Z,101656.72
2018-09-03T01:13:19.780Z,101655.38
2018-09-03T01:14:25.320Z,101661.58
2018-09-03T01:15:31.524Z,101651.78
2018-09-03T01:16:36.911Z,101653.45
2018-09-03T01:17:42.337Z,101652.61
2018-09-03T01:18:47.816Z,101647.20
2018-09-03T01:19:53.413Z,101654.37
2018-09-03T01:20:58.912Z,101654.70
2018-09-03T01:22:04.387Z,101651.70
2018-09-03T01:23:09.947Z,101650.92
2018-09-03T01:24:15.456Z,101653.00
2018-09-03T01:25:21.028Z,101654.45
2018-09-03T01:26:26.453Z,101650.41
2018-09-03T01:27:31.868Z,101659.10
2018-09-03T01:28:37.284Z,101659.53
2018-09-03T01:29:42.898Z,101655.70
2018-09-03T01:30:48.294Z,101654.86
2018-09-03T01:31:56.661Z,101654.34
2018-09-03T01:33:02.205Z,101656.05
2018-09-03T01:34:07.805Z,101659.48
2018-09-03T01:35:13.297Z,101658.23
2018-09-03T01:36:19.257Z,101657.04
2018-09-03T01:37:24.696Z,101656.94
2018-09-03T01:38:30.133Z,101652.27
2018-09-03T01:39:35.555Z,101657.04
2018-09-03T01:40:41.437Z,101657.80
2018-09-03T01:41:46.902Z,101662.75
2018-09-03T01:42:52.470Z,101649.53
2018-09-03T01:43:57.905Z,101652.55
2018-09-03T01:45:03.380Z,101650.77
2018-09-03T01:46:08.886Z,101653.27
2018-09-03T01:47:14.381Z,101653.95
2018-09-03T01:48:19.821Z,101655.66
2018-09-03T01:49:25.308Z,101652.61
2018-09-03T01:50:30.826Z,101652.16
2018-09-03T01:51:36.365Z,101657.17
2018-09-03T01:52:41.816Z,101654.64
2018-09-03T01:53:47.280Z,101656.20
2018-09-03T01:54:52.967Z,101654.34
2018-09-03T01:55:58.432Z,101652.11
2018-09-03T01:57:04.168Z,101653.17
2018-09-03T01:58:09.631Z,101654.41
2018-09-03T01:59:15.177Z,101646.22
2018-09-03T02:00:20.645Z,101644.09
2018-09-03T02:01:26.068Z,101646.17
2018-09-03T02:02:31.513Z,101644.93
2018-09-03T02:03:36.924Z,101643.72
2018-09-03T02:04:42.396Z,101646.17
2018-09-03T02:05:47.805Z,101634.97
2018-09-03T02:06:53.485Z,101636.78
2018-09-03T02:07:59.008Z,101638.02
2018-09-03T02:09:06.600Z,101637.30
2018-09-03T02:10:12.085Z,101635.64
2018-09-03T02:11:17.624Z,101639.99
2018-09-03T02:12:23.069Z,101638.70
2018-09-03T02:13:29.041Z,101638.64
2018-09-03T02:14:34.869Z,101637.81
2018-09-03T02:15:40.359Z,101639.99
2018-09-03T02:16:45.836Z,101639.59
2018-09-03T02:17:51.273Z,101637.40
2018-09-03T02:18:56.662Z,101638.80
2018-09-03T02:20:02.170Z,101638.75
2018-09-03T02:21:08.673Z,101646.15
2018-09-03T02:22:14.134Z,101646.71
2018-09-03T02:23:19.627Z,101646.20
2018-09-03T02:24:25.070Z,101648.95
2018-09-03T02:25:30.574Z,101648.57
2018-09-03T02:26:36.056Z,101654.34
2018-09-03T02:27:41.486Z,101652.67
2018-09-03T02:28:46.901Z,101652.62
2018-09-03T02:29:52.372Z,101649.63
2018-09-03T02:30:57.871Z,101657.50
2018-09-03T02:32:03.281Z,101660.91
2018-09-03T02:33:08.784Z,101653.61
2018-09-03T02:34:14.248Z,101659.61
2018-09-03T02:35:19.945Z,101654.30
2018-09-03T02:36:25.464Z,101660.40
2018-09-03T02:37:30.983Z,101660.83
2018-09-03T02:38:36.450Z,101662.20
2018-09-03T02:39:41.900Z,101663.87
2018-09-03T02:40:47.347Z,101662.98
2018-09-03T02:41:52.765Z,101663.41
2018-09-03T02:42:58.311Z,101665.91
2018-09-03T02:44:03.764Z,101662.48
2018-09-03T02:45:10.632Z,101661.50
2018-09-03T02:46:16.070Z,101664.45
2018-09-03T02:47:21.528Z,101664.05
2018-09-03T02:48:26.932Z,101664.83
2018-09-03T02:49:32.408Z,101662.70
2018-09-03T02:50:38.050Z,101659.18
2018-09-03T02:51:43.592Z,101661.45
2018-09-03T02:52:49.117Z,101662.48
2018-09-03T02:53:54.552Z,101663.31
2018-09-03T02:55:00.056Z,101667.98
2018-09-03T02:56:05.620Z,101664.61
2018-09-03T02:57:11.056Z,101660.77
2018-09-03T02:58:16.465Z,101659.94
2018-09-03T02:59:21.896Z,101657.80
2018-09-03T03:00:28.565Z,101658.70
2018-09-03T03:01:34.029Z,101655.27
2018-09-03T03:02:39.453Z,101657.08
2018-09-03T03:03:44.954Z,101657.91
2018-09-03T03:04:50.460Z,101654.08
2018-09-03T03:05:55.968Z,101658.47
2018-09-03T03:07:01.479Z,101656.91
2018-09-03T03:08:07.949Z,101658.94
2018-09-03T03:09:13.394Z,101653.19
2018-09-03T03:10:18.980Z,101646.58
2018-09-03T03:11:24.639Z,101641.02
2018-09-03T03:12:30.081Z,101637.13
2018-09-03T03:13:35.544Z,101634.19
2018-09-03T03:14:41.061Z,101632.97
2018-09-03T03:15:46.512Z,101626.92
2018-09-03T03:16:51.953Z,101628.73
2018-09-03T03:17:57.406Z,101630.86
2018-09-03T03:19:03.186Z,101632.56
2018-09-03T03:20:08.701Z,101627.55
2018-09-03T03:21:14.108Z,101633.29
2018-09-03T03:22:20.189Z,101627.68
2018-09-03T03:23:25.673Z,101634.84
2018-09-03T03:24:31.131Z,101634.75
2018-09-03T03:25:36.645Z,101632.81
2018-09-03T03:26:42.188Z,101631.00
2018-09-03T03:27:47.695Z,101629.97
2018-09-03T03:28:53.115Z,101628.44
2018-09-03T03:29:58.525Z,101623.45
2018-09-03T03:31:03.985Z,101617.53
2018-09-03T03:32:09.421Z,101621.74
2018-09-03T03:33:14.946Z,101624.33
2018-09-03T03:34:20.484Z,101625.58
2018-09-03T03:35:25.959Z,101621.64
2018-09-03T03:36:31.452Z,101627.28
2018-09-03T03:37:37.288Z,101622.94
2018-09-03T03:38:42.762Z,101630.52
2018-09-03T03:39:48.331Z,101631.24
2018-09-03T03:41:02.924Z,101629.17
2018-09-03T03:42:08.413Z,101636.99
2018-09-03T03:43:14.428Z,101630.60
2018-09-03T03:44:19.901Z,101628.06
2018-09-03T03:45:25.380Z,101628.58
2018-09-03T03:46:30.808Z,101628.84
2018-09-03T03:47:36.373Z,101626.82
2018-09-03T03:48:41.883Z,101625.93
2018-09-03T03:49:47.389Z,101625.84
2018-09-03T03:50:52.856Z,101633.52
2018-09-03T03:51:58.349Z,101627.66
2018-09-03T03:53:04.393Z,101628.52
2018-09-03T03:54:09.879Z,101627.36
2018-09-03T03:55:15.446Z,101623.05
2018-09-03T03:56:20.784Z,101619.21
2018-09-03T03:57:26.429Z,101616.16
2018-09-03T03:58:32.116Z,101611.90
2018-09-03T03:59:37.692Z,101605.23
2018-09-03T04:00:43.298Z,101603.66
2018-09-03T04:01:48.824Z,101596.10
2018-09-03T04:02:54.365Z,101591.33
2018-09-03T04:03:59.760Z,101588.73
2018-09-03T04:05:05.606Z,101588.90
2018-09-03T04:06:11.487Z,101582.02
2018-09-03T04:07:16.901Z,101582.83
2018-09-03T04:08:22.393Z,101581.45
2018-09-03T04:09:27.845Z,101582.16
2018-09-03T04:10:33.329Z,101585.31
2018-09-03T04:11:39.272Z,101588.73
2018-09-03T04:12:50.038Z,101592.73
2018-09-03T04:13:55.457Z,101591.52
2018-09-03T04:15:00.898Z,101584.53
2018-09-03T04:16:06.524Z,101585.94
2018-09-03T04:17:11.944Z,101577.95
2018-09-03T04:18:17.385Z,101577.59
2018-09-03T04:19:22.844Z,101574.28
2018-09-03T04:20:28.274Z,101571.83
2018-09-03T04:21:33.813Z,101567.94
2018-09-03T04:22:39.246Z,101567.58
2018-09-03T04:23:44.817Z,101572.05
2018-09-03T04:24:50.597Z,101573.76
2018-09-03T04:25:56.154Z,101579.45
2018-09-03T04:27:01.605Z,101576.80
2018-09-03T04:28:07.122Z,101573.30
2018-09-03T04:29:12.597Z,101574.22
2018-09-03T04:30:18.494Z,101579.91
2018-09-03T04:31:23.976Z,101583.44
2018-09-03T04:32:30.361Z,101585.65
2018-09-03T04:33:35.795Z,101585.48
2018-09-03T04:34:41.911Z,101586.31
2018-09-03T04:35:47.425Z,101585.34
2018-09-03T04:36:53.025Z,101589.79
2018-09-03T04:37:58.990Z,101591.44
2018-09-03T04:39:06.189Z,101599.27
2018-09-03T04:40:11.828Z,101595.33
2018-09-03T04:41:17.264Z,101603.93
2018-09-03T04:42:22.905Z,101605.95
2018-09-03T04:43:28.460Z,101604.61
2018-09-03T04:44:33.942Z,101600.63
2018-09-03T04:45:39.505Z,101594.41
2018-09-03T04:46:45.273Z,101586.39
2018-09-03T04:47:50.806Z,101584.58
2018-09-03T04:48:56.345Z,101578.16
2018-09-03T04:50:01.808Z,101577.52
2018-09-03T04:51:07.370Z,101579.23
2018-09-03T04:52:12.847Z,101579.40
2018-09-03T04:53:18.365Z,101578.46
2018-09-03T04:54:23.814Z,101576.19
2018-09-03T04:55:29.494Z,101569.09
2018-09-03T04:56:35.025Z,101574.69
2018-09-03T04:57:40.468Z,101570.66
2018-09-03T04:58:45.949Z,101568.98
2018-09-03T04:59:51.512Z,101569.77
2018-09-03T05:00:57.014Z,101567.95
2018-09-03T05:02:02.456Z,101567.64
2018-09-03T05:03:07.898Z,101558.43
2018-09-03T05:04:13.313Z,101560.08
2018-09-03T05:05:18.801Z,101559.72
2018-09-03T05:06:24.274Z,101550.66
2018-09-03T05:07:29.748Z,101554.03
2018-09-03T05:08:35.248Z,101551.89
2018-09-03T05:09:40.949Z,101553.19
2018-09-03T05:10:46.520Z,101554.48
2018-09-03T05:11:52.154Z,101561.42
2018-09-03T05:12:57.609Z,101559.61
2018-09-03T05:14:03.169Z,101568.63
2018-09-03T05:15:08.624Z,101570.76
2018-09-03T05:16:14.174Z,101571.22
2018-09-03T05:17:19.684Z,101572.46
2018-09-03T05:18:25.238Z,101576.20
2018-09-03T05:19:30.877Z,101578.48
2018-09-03T05:20:36.485Z,101573.86
2018-09-03T05:21:41.956Z,101573.30
2018-09-03T05:22:47.525Z,101572.52
2018-09-03T05:23:53.128Z,101570.65
2018-09-03T05:24:58.548Z,101571.08
2018-09-03T05:26:04.114Z,101568.06
2018-09-03T05:27:09.573Z,101569.00
2018-09-03T05:28:15.044Z,101571.54
2018-09-03T05:29:20.545Z,101570.51
2018-09-03T05:30:25.975Z,101572.98
2018-09-03T05:31:31.512Z,101575.69
2018-09-03T05:32:37.385Z,101577.80
2018-09-03T05:33:43.280Z,101576.61
2018-09-03T05:34:48.682Z,101577.50
2018-09-03T05:35:54.104Z,101575.94
2018-09-03T05:36:59.685Z,101570.30
2018-09-03T05:38:05.089Z,101573.76
2018-09-03T05:39:12.182Z,101572.89
2018-09-03T05:40:17.722Z,101574.91
2018-09-03T05:41:23.282Z,101569.30
2018-09-03T05:42:29.328Z,101570.40
2018-09-03T05:43:35.350Z,101564.70
2018-09-03T05:44:40.565Z,101565.67
2018-09-03T05:45:45.980Z,101575.02
2018-09-03T05:46:51.516Z,101573.60
2018-09-03T05:47:56.972Z,101580.14
2018-09-03T05:49:02.472Z,101573.66
2018-09-03T05:50:08.048Z,101572.30
2018-09-03T05:51:13.452Z,101579.67
2018-09-03T05:52:19.437Z,101573.60
2018-09-03T05:53:24.972Z,101574.33
2018-09-03T05:54:30.453Z,101567.73
2018-09-03T05:55:35.942Z,101567.94
2018-09-03T05:56:41.379Z,101567.73
2018-09-03T05:57:47.031Z,101567.68
2018-09-03T05:58:52.544Z,101566.27
2018-09-03T05:59:58.060Z,101569.90
2018-09-03T06:01:04.589Z,101566.67
2018-09-03T06:02:10.045Z,101568.28
2018-09-03T06:03:15.480Z,101566.92
2018-09-03T06:04:21.053Z,101566.55
2018-09-03T06:05:26.512Z,101572.27
2018-09-03T06:06:31.941Z,101572.58
2018-09-03T06:07:38.789Z,101568.17
2018-09-03T06:08:44.232Z,101573.01
2018-09-03T06:09:49.716Z,101565.66
2018-09-03T06:10:55.630Z,101570.76
2018-09-03T06:12:01.048Z,101568.79
2018-09-03T06:13:06.977Z,101561.81
2018-09-03T06:14:12.526Z,101565.61
2018-09-03T06:15:18.051Z,101561.08
2018-09-03T06:16:23.709Z,101558.06
2018-09-03T06:17:29.172Z,101563.30
2018-09-03T06:18:34.649Z,101564.97
2018-09-03T06:19:40.041Z,101567.05
2018-09-03T06:20:45.841Z,101568.28
2018-09-03T06:21:51.286Z,101572.89
2018-09-03T06:22:56.888Z,101571.59
2018-09-03T06:24:02.514Z,101568.41
2018-09-03T06:25:08.056Z,101572.44
2018-09-03T06:26:13.637Z,101574.45
2018-09-03T06:27:19.085Z,101567.25
2018-09-03T06:28:24.535Z,101571.02
2018-09-03T06:29:30.029Z,101565.36
2018-09-03T06:30:35.553Z,101566.35
2018-09-03T06:31:41.004Z,101568.36
2018-09-03T06:32:47.481Z,101563.75
2018-09-03T06:33:53.150Z,101564.90
2018-09-03T06:34:58.844Z,101562.89
2018-09-03T06:36:04.630Z,101571.80
2018-09-03T06:37:10.105Z,101559.89
2018-09-03T06:38:15.536Z,101560.61
2018-09-03T06:39:20.999Z,101562.19
2018-09-03T06:40:26.648Z,101560.48
2018-09-03T06:41:32.294Z,101557.83
2018-09-03T06:42:37.818Z,101561.25
2018-09-03T06:43:43.432Z,101562.67
2018-09-03T06:44:48.952Z,101560.61
2018-09-03T06:45:54.434Z,101565.21
2018-09-03T06:47:00.287Z,101567.74
2018-09-03T06:48:05.781Z,101557.30
2018-09-03T06:49:11.257Z,101559.89
2018-09-03T06:50:16.733Z,101556.53
2018-09-03T06:51:22.188Z,101561.01
2018-09-03T06:52:28.132Z,101565.34
2018-09-03T06:53:33.579Z,101565.15
2018-09-03T06:54:39.145Z,101566.51
2018-09-03T06:55:44.739Z,101566.97
2018-09-03T06:56:50.212Z,101568.48
2018-09-03T06:57:55.777Z,101568.33
2018-09-03T06:59:01.204Z,101571.80
2018-09-03T07:00:07.952Z,101565.37
2018-09-03T07:01:13.669Z,101562.77
2018-09-03T07:02:19.196Z,101567.03
2018-09-03T07:03:24.691Z,101565.37
2018-09-03T07:04:30.221Z,101571.86
2018-09-03T07:05:35.698Z,101566.78
2018-09-03T07:06:41.093Z,101563.30
2018-09-03T07:07:46.647Z,101562.83
2018-09-03T07:08:52.359Z,101567.25
2018-09-03T07:09:57.937Z,101563.02
2018-09-03T07:11:03.513Z,101557.20
2018-09-03T07:12:08.946Z,101553.22
2018-09-03T07:13:14.394Z,101557.70
2018-09-03T07:14:19.953Z,101558.47
2018-09-03T07:15:25.388Z,101553.22
2018-09-03T07:16:30.929Z,101555.87
2018-09-03T07:17:36.431Z,101558.54
2018-09-03T07:18:41.948Z,101555.87
2018-09-03T07:19:47.336Z,101553.03
2018-09-03T07:20:52.761Z,101555.81
2018-09-03T07:21:58.308Z,101557.64
2018-09-03T07:23:04.231Z,101561.78
2018-09-03T07:24:09.773Z,101556.00
2018-09-03T07:25:15.273Z,101563.08
2018-09-03T07:26:20.794Z,101558.38
2018-09-03T07:27:26.296Z,101561.68
2018-09-03T07:28:31.688Z,101554.59
2018-09-03T07:29:37.424Z,101564.27
2018-09-03T07:30:43.004Z,101558.16
2018-09-03T07:31:48.468Z,101553.94
2018-09-03T07:32:54.318Z,101551.52
2018-09-03T07:33:59.753Z,101553.22
2018-09-03T07:35:05.398Z,101548.31
2018-09-03T07:36:10.834Z,101542.42
2018-09-03T07:37:16.259Z,101546.42
2018-09-03T07:38:21.716Z,101545.72
2018-09-03T07:39:27.208Z,101550.11
2018-09-03T07:40:32.718Z,101549.11
2018-09-03T07:41:38.261Z,101549.17
2018-09-03T07:42:43.809Z,101550.81
2018-09-03T07:43:49.239Z,101544.68
2018-09-03T07:44:54.649Z,101542.08
2018-09-03T07:46:00.109Z,101547.44
2018-09-03T07:47:05.602Z,101544.68
2018-09-03T07:48:11.033Z,101553.17
2018-09-03T07:49:16.935Z,101553.58
2018-09-03T07:50:22.348Z,101556.84
2018-09-03T07:51:27.957Z,101551.34
2018-09-03T07:52:33.356Z,101551.59
2018-09-03T07:53:38.873Z,101553.94
2018-09-03T07:54:44.636Z,101546.51
2018-09-03T07:55:50.028Z,101544.04
2018-09-03T07:56:55.486Z,101545.80
2018-09-03T07:58:00.962Z,101546.47
2018-09-03T07:59:06.677Z,101540.73
2018-09-03T08:00:12.229Z,101536.95
2018-09-03T08:01:17.660Z,101536.89
2018-09-03T08:02:23.249Z,101548.05
2018-09-03T08:03:28.668Z,101543.78
2018-09-03T08:04:34.104Z,101539.66
2018-09-03T08:05:39.676Z,101546.66
2018-09-03T08:06:45.250Z,101547.29
2018-09-03T08:07:50.666Z,101546.95
2018-09-03T08:08:56.290Z,101543.56
2018-09-03T08:10:01.856Z,101539.89
2018-09-03T08:11:07.738Z,101539.36
2018-09-03T08:12:13.237Z,101529.19
2018-09-03T08:13:23.968Z,101531.98
2018-09-03T08:14:29.435Z,101532.14
2018-09-03T08:15:34.893Z,101529.77
2018-09-03T08:16:40.352Z,101529.38
2018-09-03T08:17:45.902Z,101531.21
2018-09-03T08:18:51.816Z,101529.30
2018-09-03T08:19:57.380Z,101526.77
2018-09-03T08:21:02.852Z,101528.01
2018-09-03T08:22:08.452Z,101525.27
2018-09-03T08:23:14.020Z,101532.77
2018-09-03T08:24:19.467Z,101529.61
2018-09-03T08:25:24.940Z,101523.11
2018-09-03T08:26:30.389Z,101521.37
2018-09-03T08:27:35.995Z,101525.80
2018-09-03T08:28:41.429Z,101522.83
2018-09-03T08:29:47.313Z,101521.99
2018-09-03T08:30:52.780Z,101523.14
2018-09-03T08:31:58.492Z,101526.50
2018-09-03T08:33:04.069Z,101524.37
2018-09-03T08:34:09.509Z,101522.29
2018-09-03T08:35:15.101Z,101529.71
2018-09-03T08:36:21.737Z,101518.27
2018-09-03T08:37:27.400Z,101521.95
2018-09-03T08:38:33.041Z,101513.33
2018-09-03T08:39:38.518Z,101518.98
2018-09-03T08:40:44.047Z,101517.01
2018-09-03T08:41:49.584Z,101519.21
2018-09-03T08:42:55.177Z,101513.11
2018-09-03T08:44:00.727Z,101510.33
2018-09-03T08:45:06.626Z,101516.44
2018-09-03T08:46:12.036Z,101519.38
2018-09-03T08:47:17.709Z,101510.09
2018-09-03T08:48:23.144Z,101506.87
2018-09-03T08:49:28.609Z,101502.05
2018-09-03T08:50:34.097Z,101505.34
2018-09-03T08:51:39.653Z,101499.46
2018-09-03T08:52:45.147Z,101500.48
2018-09-03T08:53:50.719Z,101501.05
2018-09-03T08:54:56.186Z,101506.11
2018-09-03T08:56:01.755Z,101508.63
2018-09-03T08:57:06.913Z,101505.69
2018-09-03T08:58:12.361Z,101515.56
2018-09-03T08:59:17.792Z,101505.14
2018-09-03T09:00:23.456Z,101507.36
2018-09-03T09:01:28.941Z,101509.97
2018-09-03T09:02:34.492Z,101510.12
2018-09-03T09:03:41.531Z,101510.35
2018-09-03T09:04:46.969Z,101505.69
2018-09-03T09:05:52.393Z,101503.00
2018-09-03T09:06:57.989Z,101497.87
2018-09-03T09:08:03.399Z,101498.63
2018-09-03T09:09:09.477Z,101501.75
2018-09-03T09:10:15.213Z,101504.68
2018-09-03T09:11:20.651Z,101494.14
2018-09-03T09:12:26.253Z,101502.23
2018-09-03T09:13:31.806Z,101498.73
2018-09-03T09:14:37.337Z,101495.01
2018-09-03T09:15:43.018Z,101498.65
2018-09-03T09:16:48.454Z,101496.48
2018-09-03T09:17:53.889Z,101490.13
2018-09-03T09:18:59.497Z,101496.02
2018-09-03T09:20:05.038Z,101492.14
2018-09-03T09:21:10.490Z,101495.22
2018-09-03T09:22:15.913Z,101495.58
2018-09-03T09:23:21.438Z,101492.81
2018-09-03T09:24:27.050Z,101494.28
2018-09-03T09:25:32.533Z,101492.02
2018-09-03T09:26:38.005Z,101489.26
2018-09-03T09:27:43.636Z,101491.23
2018-09-03T09:28:49.105Z,101487.52
2018-09-03T09:29:54.574Z,101486.34
2018-09-03T09:30:59.989Z,101489.14
2018-09-03T09:32:05.441Z,101484.91
2018-09-03T09:33:10.869Z,101489.77
2018-09-03T09:34:16.378Z,101493.47
2018-09-03T09:35:21.820Z,101488.80
2018-09-03T09:36:27.349Z,101495.83
2018-09-03T09:37:32.915Z,101495.28
2018-09-03T09:38:38.380Z,101497.72
2018-09-03T09:39:44.024Z,101492.34
2018-09-03T09:40:49.563Z,101502.52
2018-09-03T09:41:55.055Z,101491.77
2018-09-03T09:43:00.578Z,101495.81
2018-09-03T09:44:06.598Z,101494.97
2018-09-03T09:45:12.397Z,101492.89
2018-09-03T09:46:17.926Z,101498.47
2018-09-03T09:47:23.393Z,101489.08
2018-09-03T09:48:28.967Z,101489.81
2018-09-03T09:49:34.469Z,101491.96
2018-09-03T09:50:39.933Z,101489.64
2018-09-03T09:51:45.408Z,101482.07
2018-09-03T09:52:50.885Z,101484.11
2018-09-03T09:53:56.457Z,101480.02
2018-09-03T09:55:02.269Z,101485.33
2018-09-03T09:56:07.802Z,101479.92
2018-09-03T09:57:13.294Z,101482.62
2018-09-03T09:58:18.889Z,101477.23
2018-09-03T09:59:24.410Z,101479.02
2018-09-03T10:00:35.460Z,101470.89
2018-09-03T10:01:40.972Z,101467.45
2018-09-03T10:02:46.798Z,101472.19
2018-09-03T10:03:52.190Z,101467.80
2018-09-03T10:04:57.784Z,101474.23
2018-09-03T10:06:03.314Z,101473.67
2018-09-03T10:07:08.923Z,101468.19
2018-09-03T10:08:14.421Z,101473.11
2018-09-03T10:09:19.828Z,101472.17
2018-09-03T10:10:25.252Z,101470.22
2018-09-03T10:11:30.794Z,101470.86
2018-09-03T10:12:36.234Z,101467.22
2018-09-03T10:13:41.748Z,101478.14
2018-09-03T10:14:47.184Z,101476.94
2018-09-03T10:15:52.605Z,101473.76
2018-09-03T10:16:58.249Z,101472.37
2018-09-03T10:18:03.675Z,101470.05
2018-09-03T10:19:09.260Z,101469.39
2018-09-03T10:20:14.720Z,101467.51
2018-09-03T10:21:20.189Z,101471.80
2018-09-03T10:22:25.704Z,101464.89
2018-09-03T10:23:31.213Z,101463.30
2018-09-03T10:24:36.686Z,101460.67
2018-09-03T10:25:42.761Z,101458.70
2018-09-03T10:26:48.186Z,101460.47
2018-09-03T10:28:02.369Z,101455.41
2018-09-03T10:29:08.789Z,101447.88
2018-09-03T10:30:14.205Z,101444.88
2018-09-03T10:31:20.080Z,101446.44
2018-09-03T10:32:26.477Z,101452.62
2018-09-03T10:33:32.025Z,101445.72
2018-09-03T10:34:37.889Z,101447.97
2018-09-03T10:35:43.412Z,101440.45
2018-09-03T10:36:48.896Z,101442.58
2018-09-03T10:37:54.376Z,101443.16
2018-09-03T10:38:59.816Z,101442.33
2018-09-03T10:40:05.423Z,101437.77
2018-09-03T10:41:11.039Z,101435.88
2018-09-03T10:42:20.548Z,101433.45
2018-09-03T10:43:26.450Z,101430.90
2018-09-03T10:44:32.190Z,101432.95
2018-09-03T10:45:41.764Z,101425.73
2018-09-03T10:46:48.556Z,101422.44
2018-09-03T10:47:54.088Z,101433.48
2018-09-03T10:48:59.851Z,101430.64
2018-09-03T10:50:05.489Z,101426.08
2018-09-03T10:51:10.992Z,101423.84
2018-09-03T10:52:16.571Z,101414.99
2018-09-03T10:53:22.100Z,101415.13
2018-09-03T10:54:27.505Z,101415.34
2018-09-03T10:55:33.003Z,101414.23
2018-09-03T10:56:38.432Z,101414.55
2018-09-03T10:57:44.185Z,101412.13
2018-09-03T10:58:49.604Z,101408.78
2018-09-03T10:59:55.034Z,101401.66
2018-09-03T11:01:00.710Z,101406.56
2018-09-03T11:02:06.245Z,101404.06
2018-09-03T11:03:11.785Z,101412.80
2018-09-03T11:04:17.337Z,101403.66
2018-09-03T11:05:23.001Z,101407.13
2018-09-03T11:06:28.628Z,101403.88
2018-09-03T11:07:34.077Z,101405.12
2018-09-03T11:08:39.539Z,101394.30
2018-09-03T11:09:45.021Z,101391.58
2018-09-03T11:10:50.593Z,101390.41
2018-09-03T11:11:56.319Z,101392.58
2018-09-03T11:13:01.875Z,101399.13
2018-09-03T11:14:07.850Z,101395.92
2018-09-03T11:15:13.324Z,101392.86
2018-09-03T11:16:18.814Z,101398.27
2018-09-03T11:17:24.341Z,101397.34
2018-09-03T11:18:30.932Z,101397.79
2018-09-03T11:19:40.328Z,101402.72
2018-09-03T11:20:45.892Z,101396.16
2018-09-03T11:21:51.402Z,101395.58
2018-09-03T11:22:58.108Z,101395.89
2018-09-03T11:24:03.614Z,101394.86
2018-09-03T11:25:09.134Z,101395.78
2018-09-03T11:26:14.568Z,101388.57
2018-09-03T11:27:20.012Z,101393.33
2018-09-03T11:28:25.468Z,101387.13
2018-09-03T11:29:30.942Z,101388.88
2018-09-03T11:30:40.716Z,101386.50
2018-09-03T11:31:50.583Z,101384.09
2018-09-03T11:32:56.692Z,101377.23
2018-09-03T11:34:02.110Z,101378.52
2018-09-03T11:35:07.677Z,101378.20
2018-09-03T11:36:13.091Z,101377.00
2018-09-03T11:37:18.917Z,101379.52
2018-09-03T11:38:24.469Z,101383.06
2018-09-03T11:39:29.956Z,101383.55
2018-09-03T11:40:35.388Z,101378.09
2018-09-03T11:41:41.338Z,101386.09
2018-09-03T11:42:47.200Z,101380.41
2018-09-03T11:43:52.693Z,101382.07
2018-09-03T11:44:58.177Z,101381.45
2018-09-03T11:46:03.930Z,101378.55
2018-09-03T11:47:09.446Z,101379.88
2018-09-03T11:48:14.845Z,101378.36
2018-09-03T11:49:20.320Z,101381.14
2018-09-03T11:50:25.857Z,101385.73
2018-09-03T11:51:31.288Z,101386.99
2018-09-03T11:52:36.968Z,101381.14
2018-09-03T11:53:42.443Z,101390.82
2018-09-03T11:54:47.995Z,101383.39
2018-09-03T11:55:53.434Z,101385.13
2018-09-03T11:56:58.977Z,101384.93
2018-09-03T11:58:04.474Z,101375.61
2018-09-03T11:59:09.920Z,101386.19
2018-09-03T12:00:31.167Z,101377.62
2018-09-03T12:01:36.608Z,101382.84
2018-09-03T12:02:42.021Z,101382.75
2018-09-03T12:03:47.418Z,101373.84
2018-09-03T12:04:52.837Z,101380.14
2018-09-03T12:05:58.326Z,101370.53
2018-09-03T12:07:03.740Z,101376.73
2018-09-03T12:08:09.156Z,101373.07
2018-09-03T12:09:14.649Z,101372.97
2018-09-03T12:10:20.188Z,101372.13
2018-09-03T12:11:25.623Z,101377.13
2018-09-03T12:12:31.141Z,101374.51
2018-09-03T12:13:36.653Z,101365.83
2018-09-03T12:14:44.036Z,101377.02
2018-09-03T12:15:53.619Z,101369.96
2018-09-03T12:16:59.412Z,101371.88
2018-09-03T12:18:05.968Z,101374.91
2018-09-03T12:19:11.617Z,101370.39
2018-09-03T12:20:17.151Z,101371.59
2018-09-03T12:21:22.573Z,101374.67
2018-09-03T12:22:28.120Z,101368.98
2018-09-03T12:23:33.690Z,101367.67
2018-09-03T12:24:39.396Z,101369.94
2018-09-03T12:25:44.933Z,101373.53
2018-09-03T12:26:50.337Z,101361.73
2018-09-03T12:27:56.032Z,101360.41
2018-09-03T12:29:01.632Z,101371.39
2018-09-03T12:30:08.185Z,101362.64